sensor_id;sensor_type;location;lat;lon;timestamp;P1;durP1;ratioP1;P2;durP2;ratioP2
67174;SDS011;54110;45.778;4.826;2022-12-08T00:02:03;4.75;;;2.10;;
67174;SDS011;54110;45.778;4.826;2022-12-08T00:04:29;3.58;;;2.03;;
67174;SDS011;54110;45.778;4.826;2022-12-08T00:06:55;2.55;;;1.33;;
67174;SDS011;54110;45.778;4.826;2022-12-08T00:09:22;4.10;;;1.55;;
67174;SDS011;54110;45.778;4.826;2022-12-08T00:11:49;2.25;;;1.17;;
67174;SDS011;54110;45.778;4.826;2022-12-08T00:14:15;2.90;;;1.50;;
67174;SDS011;54110;45.778;4.826;2022-12-08T00:16:41;5.05;;;2.00;;
67174;SDS011;54110;45.778;4.826;2022-12-08T00:19:09;3.47;;;2.13;;
67174;SDS011;54110;45.778;4.826;2022-12-08T00:21:35;4.75;;;1.70;;
67174;SDS011;54110;45.778;4.826;2022-12-08T00:24:01;4.85;;;1.80;;
67174;SDS011;54110;45.778;4.826;2022-12-08T00:26:27;3.17;;;1.40;;
67174;SDS011;54110;45.778;4.826;2022-12-08T00:28:53;11.88;;;2.08;;
67174;SDS011;54110;45.778;4.826;2022-12-08T00:31:19;3.33;;;1.42;;
67174;SDS011;54110;45.778;4.826;2022-12-08T00:33:45;9.23;;;1.50;;
67174;SDS011;54110;45.778;4.826;2022-12-08T00:36:13;2.38;;;1.23;;
67174;SDS011;54110;45.778;4.826;2022-12-08T00:38:39;3.63;;;1.90;;
67174;SDS011;54110;45.778;4.826;2022-12-08T00:41:06;3.85;;;1.88;;
67174;SDS011;54110;45.778;4.826;2022-12-08T00:43:33;5.28;;;1.88;;
67174;SDS011;54110;45.778;4.826;2022-12-08T00:45:59;5.18;;;1.52;;
67174;SDS011;54110;45.778;4.826;2022-12-08T00:48:25;5.45;;;1.55;;
67174;SDS011;54110;45.778;4.826;2022-12-08T00:50:51;3.85;;;2.03;;
67174;SDS011;54110;45.778;4.826;2022-12-08T00:53:18;3.10;;;1.52;;
67174;SDS011;54110;45.778;4.826;2022-12-08T00:55:44;2.75;;;1.52;;
67174;SDS011;54110;45.778;4.826;2022-12-08T00:58:10;3.30;;;1.92;;
67174;SDS011;54110;45.778;4.826;2022-12-08T01:00:38;4.47;;;1.85;;
67174;SDS011;54110;45.778;4.826;2022-12-08T01:03:04;2.20;;;1.23;;
67174;SDS011;54110;45.778;4.826;2022-12-08T01:05:30;3.38;;;1.70;;
67174;SDS011;54110;45.778;4.826;2022-12-08T01:07:56;3.22;;;1.38;;
67174;SDS011;54110;45.778;4.826;2022-12-08T01:10:24;2.25;;;1.58;;
67174;SDS011;54110;45.778;4.826;2022-12-08T01:12:50;4.00;;;2.00;;
67174;SDS011;54110;45.778;4.826;2022-12-08T01:15:16;4.53;;;1.60;;
67174;SDS011;54110;45.778;4.826;2022-12-08T01:17:42;3.50;;;1.60;;
67174;SDS011;54110;45.778;4.826;2022-12-08T01:20:08;1.67;;;1.33;;
67174;SDS011;54110;45.778;4.826;2022-12-08T01:22:34;3.60;;;1.98;;
67174;SDS011;54110;45.778;4.826;2022-12-08T01:25:00;2.97;;;1.48;;
67174;SDS011;54110;45.778;4.826;2022-12-08T01:27:28;3.33;;;1.50;;
67174;SDS011;54110;45.778;4.826;2022-12-08T01:29:54;3.85;;;1.80;;
67174;SDS011;54110;45.778;4.826;2022-12-08T01:32:20;2.65;;;1.15;;
67174;SDS011;54110;45.778;4.826;2022-12-08T01:34:46;1.85;;;1.17;;
67174;SDS011;54110;45.778;4.826;2022-12-08T01:37:12;3.95;;;1.40;;
67174;SDS011;54110;45.778;4.826;2022-12-08T01:39:38;4.78;;;1.98;;
67174;SDS011;54110;45.778;4.826;2022-12-08T01:42:04;3.47;;;1.58;;
67174;SDS011;54110;45.778;4.826;2022-12-08T01:47:16;2.55;;;1.35;;
67174;SDS011;54110;45.778;4.826;2022-12-08T01:49:42;1.75;;;1.13;;
67174;SDS011;54110;45.778;4.826;2022-12-08T01:52:09;2.72;;;1.45;;
67174;SDS011;54110;45.778;4.826;2022-12-08T01:54:37;3.17;;;1.63;;
67174;SDS011;54110;45.778;4.826;2022-12-08T01:57:04;4.13;;;1.70;;
67174;SDS011;54110;45.778;4.826;2022-12-08T01:59:31;3.42;;;1.73;;
67174;SDS011;54110;45.778;4.826;2022-12-08T02:01:59;2.55;;;1.33;;
67174;SDS011;54110;45.778;4.826;2022-12-08T02:04:27;2.10;;;1.00;;
67174;SDS011;54110;45.778;4.826;2022-12-08T02:06:53;3.70;;;1.38;;
67174;SDS011;54110;45.778;4.826;2022-12-08T02:09:19;2.20;;;1.33;;
67174;SDS011;54110;45.778;4.826;2022-12-08T02:11:46;3.63;;;1.73;;
67174;SDS011;54110;45.778;4.826;2022-12-08T02:14:12;3.55;;;1.20;;
67174;SDS011;54110;45.778;4.826;2022-12-08T02:16:39;3.13;;;1.40;;
67174;SDS011;54110;45.778;4.826;2022-12-08T02:21:52;1.55;;;1.10;;
67174;SDS011;54110;45.778;4.826;2022-12-08T02:24:25;3.97;;;1.75;;
67174;SDS011;54110;45.778;4.826;2022-12-08T02:27:03;3.20;;;1.15;;
67174;SDS011;54110;45.778;4.826;2022-12-08T02:29:51;2.35;;;1.10;;
67174;SDS011;54110;45.778;4.826;2022-12-08T02:32:33;3.45;;;1.85;;
67174;SDS011;54110;45.778;4.826;2022-12-08T02:35:07;3.22;;;1.35;;
67174;SDS011;54110;45.778;4.826;2022-12-08T02:37:36;3.22;;;1.10;;
67174;SDS011;54110;45.778;4.826;2022-12-08T02:40:05;3.42;;;1.60;;
67174;SDS011;54110;45.778;4.826;2022-12-08T02:42:35;2.28;;;1.35;;
67174;SDS011;54110;45.778;4.826;2022-12-08T02:45:03;2.72;;;1.10;;
67174;SDS011;54110;45.778;4.826;2022-12-08T02:47:31;2.05;;;1.40;;
67174;SDS011;54110;45.778;4.826;2022-12-08T02:49:59;1.88;;;1.27;;
67174;SDS011;54110;45.778;4.826;2022-12-08T02:52:39;1.88;;;1.20;;
67174;SDS011;54110;45.778;4.826;2022-12-08T02:55:06;6.55;;;1.42;;
67174;SDS011;54110;45.778;4.826;2022-12-08T02:57:35;3.28;;;1.70;;
67174;SDS011;54110;45.778;4.826;2022-12-08T03:00:06;2.92;;;1.48;;
67174;SDS011;54110;45.778;4.826;2022-12-08T03:02:40;2.25;;;1.23;;
67174;SDS011;54110;45.778;4.826;2022-12-08T03:05:09;2.63;;;1.67;;
67174;SDS011;54110;45.778;4.826;2022-12-08T03:07:39;2.65;;;1.60;;
67174;SDS011;54110;45.778;4.826;2022-12-08T03:10:08;4.95;;;1.50;;
67174;SDS011;54110;45.778;4.826;2022-12-08T03:12:36;2.17;;;1.25;;
67174;SDS011;54110;45.778;4.826;2022-12-08T03:15:04;2.00;;;1.05;;
67174;SDS011;54110;45.778;4.826;2022-12-08T03:17:31;2.38;;;1.50;;
67174;SDS011;54110;45.778;4.826;2022-12-08T03:19:58;2.40;;;1.20;;
67174;SDS011;54110;45.778;4.826;2022-12-08T03:22:27;1.88;;;1.30;;
67174;SDS011;54110;45.778;4.826;2022-12-08T03:24:55;3.63;;;1.20;;
67174;SDS011;54110;45.778;4.826;2022-12-08T03:27:22;2.30;;;1.50;;
67174;SDS011;54110;45.778;4.826;2022-12-08T03:29:49;3.75;;;1.50;;
67174;SDS011;54110;45.778;4.826;2022-12-08T03:32:19;1.35;;;1.10;;
67174;SDS011;54110;45.778;4.826;2022-12-08T03:34:47;1.55;;;1.25;;
67174;SDS011;54110;45.778;4.826;2022-12-08T03:37:13;3.03;;;1.70;;
67174;SDS011;54110;45.778;4.826;2022-12-08T03:39:40;3.78;;;1.80;;
67174;SDS011;54110;45.778;4.826;2022-12-08T03:42:07;3.40;;;1.38;;
67174;SDS011;54110;45.778;4.826;2022-12-08T03:44:33;2.38;;;1.40;;
67174;SDS011;54110;45.778;4.826;2022-12-08T03:46:59;4.68;;;1.85;;
67174;SDS011;54110;45.778;4.826;2022-12-08T03:49:25;2.78;;;1.38;;
67174;SDS011;54110;45.778;4.826;2022-12-08T03:51:51;6.22;;;1.17;;
67174;SDS011;54110;45.778;4.826;2022-12-08T03:54:17;1.70;;;1.10;;
67174;SDS011;54110;45.778;4.826;2022-12-08T03:56:43;1.67;;;1.10;;
67174;SDS011;54110;45.778;4.826;2022-12-08T03:59:11;1.85;;;1.10;;
67174;SDS011;54110;45.778;4.826;2022-12-08T04:01:37;3.80;;;1.42;;
67174;SDS011;54110;45.778;4.826;2022-12-08T04:04:03;1.48;;;1.17;;
67174;SDS011;54110;45.778;4.826;2022-12-08T04:06:29;7.70;;;1.50;;
67174;SDS011;54110;45.778;4.826;2022-12-08T04:08:55;3.78;;;0.93;;
67174;SDS011;54110;45.778;4.826;2022-12-08T04:11:21;1.88;;;1.13;;
67174;SDS011;54110;45.778;4.826;2022-12-08T04:13:47;3.00;;;1.40;;
67174;SDS011;54110;45.778;4.826;2022-12-08T04:16:15;2.33;;;1.20;;
67174;SDS011;54110;45.778;4.826;2022-12-08T04:18:42;5.93;;;1.67;;
67174;SDS011;54110;45.778;4.826;2022-12-08T04:21:08;3.10;;;1.40;;
67174;SDS011;54110;45.778;4.826;2022-12-08T04:23:34;5.43;;;1.20;;
67174;SDS011;54110;45.778;4.826;2022-12-08T04:26:00;4.95;;;1.38;;
67174;SDS011;54110;45.778;4.826;2022-12-08T04:28:26;6.40;;;1.10;;
67174;SDS011;54110;45.778;4.826;2022-12-08T04:30:52;10.50;;;1.35;;
67174;SDS011;54110;45.778;4.826;2022-12-08T04:33:19;2.63;;;1.13;;
67174;SDS011;54110;45.778;4.826;2022-12-08T04:35:45;5.80;;;1.38;;
67174;SDS011;54110;45.778;4.826;2022-12-08T04:38:11;3.85;;;1.38;;
67174;SDS011;54110;45.778;4.826;2022-12-08T04:40:37;2.88;;;1.42;;
67174;SDS011;54110;45.778;4.826;2022-12-08T04:43:04;2.95;;;1.10;;
67174;SDS011;54110;45.778;4.826;2022-12-08T04:45:30;3.03;;;1.27;;
67174;SDS011;54110;45.778;4.826;2022-12-08T04:47:56;2.03;;;1.35;;
67174;SDS011;54110;45.778;4.826;2022-12-08T04:50:24;2.13;;;1.45;;
67174;SDS011;54110;45.778;4.826;2022-12-08T04:52:50;2.30;;;1.27;;
67174;SDS011;54110;45.778;4.826;2022-12-08T04:55:16;1.08;;;0.85;;
67174;SDS011;54110;45.778;4.826;2022-12-08T04:57:42;1.48;;;1.23;;
67174;SDS011;54110;45.778;4.826;2022-12-08T05:00:09;3.47;;;1.45;;
67174;SDS011;54110;45.778;4.826;2022-12-08T05:02:35;1.85;;;0.90;;
67174;SDS011;54110;45.778;4.826;2022-12-08T05:05:01;2.20;;;1.25;;
67174;SDS011;54110;45.778;4.826;2022-12-08T05:07:28;2.15;;;1.27;;
67174;SDS011;54110;45.778;4.826;2022-12-08T05:09:55;2.22;;;1.08;;
67174;SDS011;54110;45.778;4.826;2022-12-08T05:12:21;1.80;;;1.08;;
67174;SDS011;54110;45.778;4.826;2022-12-08T05:14:47;3.42;;;1.08;;
67174;SDS011;54110;45.778;4.826;2022-12-08T05:17:13;1.63;;;0.82;;
67174;SDS011;54110;45.778;4.826;2022-12-08T05:19:39;1.55;;;0.93;;
67174;SDS011;54110;45.778;4.826;2022-12-08T05:22:05;2.58;;;1.48;;
67174;SDS011;54110;45.778;4.826;2022-12-08T05:24:32;4.45;;;1.65;;
67174;SDS011;54110;45.778;4.826;2022-12-08T05:26:58;2.80;;;1.20;;
67174;SDS011;54110;45.778;4.826;2022-12-08T05:29:24;1.85;;;1.20;;
67174;SDS011;54110;45.778;4.826;2022-12-08T05:31:50;2.20;;;1.52;;
67174;SDS011;54110;45.778;4.826;2022-12-08T05:34:16;1.38;;;0.70;;
67174;SDS011;54110;45.778;4.826;2022-12-08T05:36:42;2.60;;;1.52;;
67174;SDS011;54110;45.778;4.826;2022-12-08T05:39:10;2.28;;;1.27;;
67174;SDS011;54110;45.778;4.826;2022-12-08T05:41:38;1.83;;;1.00;;
67174;SDS011;54110;45.778;4.826;2022-12-08T05:44:04;3.63;;;1.90;;
67174;SDS011;54110;45.778;4.826;2022-12-08T05:46:30;3.97;;;1.70;;
67174;SDS011;54110;45.778;4.826;2022-12-08T05:48:57;2.28;;;1.25;;
67174;SDS011;54110;45.778;4.826;2022-12-08T05:51:24;0.95;;;0.70;;
67174;SDS011;54110;45.778;4.826;2022-12-08T05:53:50;3.35;;;1.40;;
67174;SDS011;54110;45.778;4.826;2022-12-08T05:56:16;1.60;;;1.08;;
67174;SDS011;54110;45.778;4.826;2022-12-08T05:58:44;2.70;;;0.90;;
67174;SDS011;54110;45.778;4.826;2022-12-08T06:01:17;2.35;;;0.90;;
67174;SDS011;54110;45.778;4.826;2022-12-08T06:03:43;1.40;;;0.73;;
67174;SDS011;54110;45.778;4.826;2022-12-08T06:06:09;2.80;;;1.10;;
67174;SDS011;54110;45.778;4.826;2022-12-08T06:08:35;1.65;;;1.17;;
67174;SDS011;54110;45.778;4.826;2022-12-08T06:11:01;1.38;;;0.90;;
67174;SDS011;54110;45.778;4.826;2022-12-08T06:13:27;2.22;;;0.93;;
67174;SDS011;54110;45.778;4.826;2022-12-08T06:15:54;0.98;;;0.73;;
67174;SDS011;54110;45.778;4.826;2022-12-08T06:18:20;2.58;;;1.13;;
67174;SDS011;54110;45.778;4.826;2022-12-08T06:20:46;2.92;;;1.30;;
67174;SDS011;54110;45.778;4.826;2022-12-08T06:23:12;1.40;;;0.95;;
67174;SDS011;54110;45.778;4.826;2022-12-08T06:25:38;2.63;;;1.23;;
67174;SDS011;54110;45.778;4.826;2022-12-08T06:28:04;2.83;;;1.35;;
67174;SDS011;54110;45.778;4.826;2022-12-08T06:30:30;1.88;;;1.00;;
67174;SDS011;54110;45.778;4.826;2022-12-08T06:32:57;0.70;;;0.70;;
67174;SDS011;54110;45.778;4.826;2022-12-08T06:35:23;2.40;;;1.42;;
67174;SDS011;54110;45.778;4.826;2022-12-08T06:37:49;15.55;;;1.67;;
67174;SDS011;54110;45.778;4.826;2022-12-08T06:40:16;3.30;;;1.45;;
67174;SDS011;54110;45.778;4.826;2022-12-08T06:42:42;2.47;;;1.10;;
67174;SDS011;54110;45.778;4.826;2022-12-08T06:45:08;12.90;;;1.33;;
67174;SDS011;54110;45.778;4.826;2022-12-08T06:47:35;2.67;;;0.80;;
67174;SDS011;54110;45.778;4.826;2022-12-08T06:50:02;1.40;;;1.00;;
67174;SDS011;54110;45.778;4.826;2022-12-08T06:52:29;2.35;;;1.23;;
67174;SDS011;54110;45.778;4.826;2022-12-08T06:54:55;4.07;;;1.00;;
67174;SDS011;54110;45.778;4.826;2022-12-08T06:57:21;2.22;;;1.00;;
67174;SDS011;54110;45.778;4.826;2022-12-08T06:59:47;1.02;;;0.70;;
67174;SDS011;54110;45.778;4.826;2022-12-08T07:02:13;2.22;;;1.40;;
67174;SDS011;54110;45.778;4.826;2022-12-08T07:04:39;1.35;;;1.17;;
67174;SDS011;54110;45.778;4.826;2022-12-08T07:07:06;7.93;;;1.40;;
67174;SDS011;54110;45.778;4.826;2022-12-08T07:09:32;3.15;;;1.48;;
67174;SDS011;54110;45.778;4.826;2022-12-08T07:11:58;1.63;;;1.20;;
67174;SDS011;54110;45.778;4.826;2022-12-08T07:14:24;1.55;;;0.98;;
67174;SDS011;54110;45.778;4.826;2022-12-08T07:16:51;1.40;;;1.00;;
67174;SDS011;54110;45.778;4.826;2022-12-08T07:19:17;2.83;;;1.45;;
67174;SDS011;54110;45.778;4.826;2022-12-08T07:21:43;3.17;;;1.50;;
67174;SDS011;54110;45.778;4.826;2022-12-08T07:24:11;4.00;;;1.33;;
67174;SDS011;54110;45.778;4.826;2022-12-08T07:26:37;1.55;;;1.05;;
67174;SDS011;54110;45.778;4.826;2022-12-08T07:29:03;10.48;;;1.17;;
67174;SDS011;54110;45.778;4.826;2022-12-08T07:31:29;2.72;;;1.08;;
67174;SDS011;54110;45.778;4.826;2022-12-08T07:33:55;10.52;;;1.30;;
67174;SDS011;54110;45.778;4.826;2022-12-08T07:36:22;11.43;;;1.67;;
67174;SDS011;54110;45.778;4.826;2022-12-08T07:38:48;6.88;;;1.67;;
67174;SDS011;54110;45.778;4.826;2022-12-08T07:41:16;9.88;;;1.45;;
67174;SDS011;54110;45.778;4.826;2022-12-08T07:43:43;5.35;;;2.10;;
67174;SDS011;54110;45.778;4.826;2022-12-08T07:46:10;2.35;;;1.17;;
67174;SDS011;54110;45.778;4.826;2022-12-08T07:48:36;4.82;;;1.40;;
67174;SDS011;54110;45.778;4.826;2022-12-08T07:51:02;1.63;;;1.30;;
67174;SDS011;54110;45.778;4.826;2022-12-08T07:53:28;3.22;;;1.45;;
67174;SDS011;54110;45.778;4.826;2022-12-08T07:55:54;5.45;;;1.38;;
67174;SDS011;54110;45.778;4.826;2022-12-08T07:58:22;1.40;;;1.10;;
67174;SDS011;54110;45.778;4.826;2022-12-08T08:00:48;4.93;;;1.40;;
67174;SDS011;54110;45.778;4.826;2022-12-08T08:03:14;5.00;;;1.50;;
67174;SDS011;54110;45.778;4.826;2022-12-08T08:05:40;2.67;;;1.30;;
67174;SDS011;54110;45.778;4.826;2022-12-08T08:08:06;2.08;;;1.48;;
67174;SDS011;54110;45.778;4.826;2022-12-08T08:10:32;2.97;;;1.70;;
67174;SDS011;54110;45.778;4.826;2022-12-08T08:12:58;2.00;;;1.40;;
67174;SDS011;54110;45.778;4.826;2022-12-08T08:15:25;2.75;;;1.55;;
67174;SDS011;54110;45.778;4.826;2022-12-08T08:17:52;3.13;;;1.52;;
67174;SDS011;54110;45.778;4.826;2022-12-08T08:20:18;2.53;;;1.38;;
67174;SDS011;54110;45.778;4.826;2022-12-08T08:22:44;10.75;;;2.63;;
67174;SDS011;54110;45.778;4.826;2022-12-08T08:25:10;1.85;;;1.23;;
67174;SDS011;54110;45.778;4.826;2022-12-08T08:27:36;2.60;;;1.52;;
67174;SDS011;54110;45.778;4.826;2022-12-08T08:30:02;3.30;;;1.67;;
67174;SDS011;54110;45.778;4.826;2022-12-08T08:32:32;3.45;;;1.77;;
67174;SDS011;54110;45.778;4.826;2022-12-08T08:34:58;2.05;;;1.50;;
67174;SDS011;54110;45.778;4.826;2022-12-08T08:37:24;4.75;;;1.77;;
67174;SDS011;54110;45.778;4.826;2022-12-08T08:39:50;3.63;;;1.90;;
67174;SDS011;54110;45.778;4.826;2022-12-08T08:42:16;2.88;;;1.63;;
67174;SDS011;54110;45.778;4.826;2022-12-08T08:44:42;2.53;;;1.23;;
67174;SDS011;54110;45.778;4.826;2022-12-08T08:47:08;3.13;;;1.48;;
67174;SDS011;54110;45.778;4.826;2022-12-08T08:49:35;2.03;;;1.52;;
67174;SDS011;54110;45.778;4.826;2022-12-08T08:52:02;1.83;;;1.67;;
67174;SDS011;54110;45.778;4.826;2022-12-08T08:54:28;4.63;;;1.52;;
67174;SDS011;54110;45.778;4.826;2022-12-08T08:56:55;1.92;;;1.23;;
67174;SDS011;54110;45.778;4.826;2022-12-08T08:59:21;2.08;;;1.40;;
67174;SDS011;54110;45.778;4.826;2022-12-08T09:01:47;4.32;;;2.05;;
67174;SDS011;54110;45.778;4.826;2022-12-08T09:04:13;2.63;;;1.38;;
67174;SDS011;54110;45.778;4.826;2022-12-08T09:06:41;4.75;;;1.75;;
67174;SDS011;54110;45.778;4.826;2022-12-08T09:09:07;3.28;;;1.67;;
67174;SDS011;54110;45.778;4.826;2022-12-08T09:11:33;2.15;;;1.42;;
67174;SDS011;54110;45.778;4.826;2022-12-08T09:13:59;2.58;;;1.48;;
67174;SDS011;54110;45.778;4.826;2022-12-08T09:16:25;5.82;;;2.00;;
67174;SDS011;54110;45.778;4.826;2022-12-08T09:18:51;1.90;;;1.52;;
67174;SDS011;54110;45.778;4.826;2022-12-08T09:21:19;1.77;;;1.23;;
67174;SDS011;54110;45.778;4.826;2022-12-08T09:23:46;1.88;;;1.17;;
67174;SDS011;54110;45.778;4.826;2022-12-08T09:26:13;3.80;;;1.60;;
67174;SDS011;54110;45.778;4.826;2022-12-08T09:28:39;2.40;;;1.50;;
67174;SDS011;54110;45.778;4.826;2022-12-08T09:31:05;1.77;;;1.42;;
67174;SDS011;54110;45.778;4.826;2022-12-08T09:33:31;4.47;;;2.03;;
67174;SDS011;54110;45.778;4.826;2022-12-08T09:36:00;3.78;;;1.58;;
67174;SDS011;54110;45.778;4.826;2022-12-08T09:38:26;7.68;;;1.88;;
67174;SDS011;54110;45.778;4.826;2022-12-08T09:40:53;3.53;;;1.83;;
67174;SDS011;54110;45.778;4.826;2022-12-08T09:43:37;2.95;;;1.88;;
67174;SDS011;54110;45.778;4.826;2022-12-08T09:46:06;4.90;;;1.85;;
67174;SDS011;54110;45.778;4.826;2022-12-08T09:48:34;3.92;;;1.80;;
67174;SDS011;54110;45.778;4.826;2022-12-08T09:51:02;7.15;;;2.55;;
67174;SDS011;54110;45.778;4.826;2022-12-08T09:53:30;9.18;;;1.42;;
67174;SDS011;54110;45.778;4.826;2022-12-08T09:55:59;4.47;;;2.13;;
67174;SDS011;54110;45.778;4.826;2022-12-08T09:58:26;5.00;;;1.92;;
67174;SDS011;54110;45.778;4.826;2022-12-08T10:00:54;5.43;;;1.95;;
67174;SDS011;54110;45.778;4.826;2022-12-08T10:03:20;3.05;;;1.70;;
67174;SDS011;54110;45.778;4.826;2022-12-08T10:05:51;4.43;;;2.53;;
67174;SDS011;54110;45.778;4.826;2022-12-08T10:08:19;2.20;;;1.33;;
67174;SDS011;54110;45.778;4.826;2022-12-08T10:10:51;4.80;;;1.88;;
67174;SDS011;54110;45.778;4.826;2022-12-08T10:13:21;4.25;;;2.13;;
67174;SDS011;54110;45.778;4.826;2022-12-08T10:15:50;4.95;;;2.20;;
67174;SDS011;54110;45.778;4.826;2022-12-08T10:18:18;8.88;;;2.33;;
67174;SDS011;54110;45.778;4.826;2022-12-08T10:20:45;6.38;;;1.95;;
67174;SDS011;54110;45.778;4.826;2022-12-08T10:23:18;3.80;;;1.77;;
67174;SDS011;54110;45.778;4.826;2022-12-08T10:25:48;5.65;;;2.35;;
67174;SDS011;54110;45.778;4.826;2022-12-08T10:28:14;5.00;;;1.98;;
67174;SDS011;54110;45.778;4.826;2022-12-08T10:30:42;2.92;;;1.77;;
67174;SDS011;54110;45.778;4.826;2022-12-08T10:33:09;4.35;;;2.08;;
67174;SDS011;54110;45.778;4.826;2022-12-08T10:35:41;9.98;;;2.80;;
67174;SDS011;54110;45.778;4.826;2022-12-08T10:38:14;3.35;;;2.15;;
67174;SDS011;54110;45.778;4.826;2022-12-08T10:40:41;6.57;;;2.63;;
67174;SDS011;54110;45.778;4.826;2022-12-08T10:43:11;8.27;;;2.47;;
67174;SDS011;54110;45.778;4.826;2022-12-08T10:45:39;4.45;;;1.75;;
67174;SDS011;54110;45.778;4.826;2022-12-08T10:48:12;4.72;;;2.00;;
67174;SDS011;54110;45.778;4.826;2022-12-08T10:50:40;6.60;;;2.15;;
67174;SDS011;54110;45.778;4.826;2022-12-08T10:53:10;3.45;;;1.60;;
67174;SDS011;54110;45.778;4.826;2022-12-08T10:55:38;5.97;;;2.15;;
67174;SDS011;54110;45.778;4.826;2022-12-08T10:58:07;4.05;;;1.90;;
67174;SDS011;54110;45.778;4.826;2022-12-08T11:00:49;5.75;;;2.10;;
67174;SDS011;54110;45.778;4.826;2022-12-08T11:03:20;2.92;;;1.50;;
67174;SDS011;54110;45.778;4.826;2022-12-08T11:05:47;4.53;;;1.73;;
67174;SDS011;54110;45.778;4.826;2022-12-08T11:08:13;14.43;;;2.70;;
67174;SDS011;54110;45.778;4.826;2022-12-08T11:10:41;2.40;;;1.40;;
67174;SDS011;54110;45.778;4.826;2022-12-08T11:13:11;5.18;;;2.10;;
67174;SDS011;54110;45.778;4.826;2022-12-08T11:15:40;12.05;;;1.92;;
67174;SDS011;54110;45.778;4.826;2022-12-08T11:18:18;4.30;;;2.03;;
67174;SDS011;54110;45.778;4.826;2022-12-08T11:20:47;5.18;;;2.10;;
67174;SDS011;54110;45.778;4.826;2022-12-08T11:23:21;8.73;;;1.77;;
67174;SDS011;54110;45.778;4.826;2022-12-08T11:25:48;4.07;;;2.22;;
67174;SDS011;54110;45.778;4.826;2022-12-08T11:28:15;10.23;;;2.28;;
67174;SDS011;54110;45.778;4.826;2022-12-08T11:30:45;5.72;;;2.10;;
67174;SDS011;54110;45.778;4.826;2022-12-08T11:33:12;3.90;;;1.52;;
67174;SDS011;54110;45.778;4.826;2022-12-08T11:35:40;6.20;;;2.13;;
67174;SDS011;54110;45.778;4.826;2022-12-08T11:38:11;3.33;;;1.55;;
67174;SDS011;54110;45.778;4.826;2022-12-08T11:40:38;3.00;;;1.58;;
67174;SDS011;54110;45.778;4.826;2022-12-08T11:43:05;2.72;;;1.48;;
67174;SDS011;54110;45.778;4.826;2022-12-08T11:45:34;8.30;;;1.90;;
67174;SDS011;54110;45.778;4.826;2022-12-08T11:48:03;3.50;;;1.65;;
67174;SDS011;54110;45.778;4.826;2022-12-08T11:50:31;3.47;;;1.83;;
67174;SDS011;54110;45.778;4.826;2022-12-08T11:53:02;5.05;;;2.40;;
67174;SDS011;54110;45.778;4.826;2022-12-08T11:55:31;4.40;;;1.92;;
67174;SDS011;54110;45.778;4.826;2022-12-08T11:57:59;8.55;;;1.90;;
67174;SDS011;54110;45.778;4.826;2022-12-08T12:00:27;4.57;;;1.75;;
67174;SDS011;54110;45.778;4.826;2022-12-08T12:02:55;2.85;;;1.67;;
67174;SDS011;54110;45.778;4.826;2022-12-08T12:05:26;2.00;;;1.55;;
67174;SDS011;54110;45.778;4.826;2022-12-08T12:07:57;4.82;;;2.38;;
67174;SDS011;54110;45.778;4.826;2022-12-08T12:13:01;7.95;;;2.17;;
67174;SDS011;54110;45.778;4.826;2022-12-08T12:15:48;9.07;;;2.63;;
67174;SDS011;54110;45.778;4.826;2022-12-08T12:18:18;3.42;;;2.17;;
67174;SDS011;54110;45.778;4.826;2022-12-08T12:20:49;4.97;;;2.15;;
67174;SDS011;54110;45.778;4.826;2022-12-08T12:23:18;12.40;;;2.53;;
67174;SDS011;54110;45.778;4.826;2022-12-08T12:25:45;7.00;;;2.75;;
67174;SDS011;54110;45.778;4.826;2022-12-08T12:28:15;6.53;;;2.42;;
67174;SDS011;54110;45.778;4.826;2022-12-08T12:30:49;7.90;;;2.05;;
67174;SDS011;54110;45.778;4.826;2022-12-08T12:33:16;4.30;;;2.38;;
67174;SDS011;54110;45.778;4.826;2022-12-08T12:35:43;4.72;;;2.03;;
67174;SDS011;54110;45.778;4.826;2022-12-08T12:38:15;4.00;;;2.28;;
67174;SDS011;54110;45.778;4.826;2022-12-08T12:40:43;3.85;;;2.00;;
67174;SDS011;54110;45.778;4.826;2022-12-08T12:43:13;4.82;;;2.55;;
67174;SDS011;54110;45.778;4.826;2022-12-08T12:45:50;3.35;;;2.45;;
67174;SDS011;54110;45.778;4.826;2022-12-08T12:48:36;7.88;;;2.83;;
67174;SDS011;54110;45.778;4.826;2022-12-08T12:51:02;3.92;;;1.67;;
67174;SDS011;54110;45.778;4.826;2022-12-08T12:53:48;4.63;;;2.13;;
67174;SDS011;54110;45.778;4.826;2022-12-08T12:58:59;3.47;;;1.80;;
67174;SDS011;54110;45.778;4.826;2022-12-08T13:01:49;5.22;;;2.17;;
67174;SDS011;54110;45.778;4.826;2022-12-08T13:04:16;7.65;;;2.88;;
67174;SDS011;54110;45.778;4.826;2022-12-08T13:06:44;8.82;;;2.85;;
67174;SDS011;54110;45.778;4.826;2022-12-08T13:09:18;7.25;;;1.95;;
67174;SDS011;54110;45.778;4.826;2022-12-08T13:11:45;4.63;;;2.33;;
67174;SDS011;54110;45.778;4.826;2022-12-08T13:14:23;6.43;;;2.88;;
67174;SDS011;54110;45.778;4.826;2022-12-08T13:16:52;5.80;;;2.72;;
67174;SDS011;54110;45.778;4.826;2022-12-08T13:19:19;6.80;;;2.63;;
67174;SDS011;54110;45.778;4.826;2022-12-08T13:21:46;7.45;;;2.38;;
67174;SDS011;54110;45.778;4.826;2022-12-08T13:24:13;5.25;;;2.75;;
67174;SDS011;54110;45.778;4.826;2022-12-08T13:26:41;7.22;;;2.10;;
67174;SDS011;54110;45.778;4.826;2022-12-08T13:29:18;5.75;;;2.22;;
67174;SDS011;54110;45.778;4.826;2022-12-08T13:31:45;7.95;;;3.00;;
67174;SDS011;54110;45.778;4.826;2022-12-08T13:34:13;14.80;;;3.22;;
67174;SDS011;54110;45.778;4.826;2022-12-08T13:36:41;11.80;;;2.20;;
67174;SDS011;54110;45.778;4.826;2022-12-08T13:39:09;9.93;;;2.22;;
67174;SDS011;54110;45.778;4.826;2022-12-08T13:41:40;3.47;;;2.08;;
67174;SDS011;54110;45.778;4.826;2022-12-08T13:44:11;3.13;;;2.28;;
67174;SDS011;54110;45.778;4.826;2022-12-08T13:46:41;10.90;;;2.50;;
67174;SDS011;54110;45.778;4.826;2022-12-08T13:49:07;11.98;;;3.00;;
67174;SDS011;54110;45.778;4.826;2022-12-08T13:51:38;4.45;;;2.40;;
67174;SDS011;54110;45.778;4.826;2022-12-08T13:54:05;5.25;;;2.47;;
67174;SDS011;54110;45.778;4.826;2022-12-08T13:56:34;6.32;;;2.65;;
67174;SDS011;54110;45.778;4.826;2022-12-08T13:59:07;11.15;;;2.75;;
67174;SDS011;54110;45.778;4.826;2022-12-08T14:01:36;4.22;;;2.15;;
67174;SDS011;54110;45.778;4.826;2022-12-08T14:04:05;6.88;;;2.25;;
67174;SDS011;54110;45.778;4.826;2022-12-08T14:06:33;5.25;;;2.40;;
67174;SDS011;54110;45.778;4.826;2022-12-08T14:09:02;8.48;;;2.22;;
67174;SDS011;54110;45.778;4.826;2022-12-08T14:11:30;5.43;;;2.72;;
67174;SDS011;54110;45.778;4.826;2022-12-08T14:14:00;6.18;;;2.13;;
67174;SDS011;54110;45.778;4.826;2022-12-08T14:16:27;5.55;;;2.88;;
67174;SDS011;54110;45.778;4.826;2022-12-08T14:18:53;4.75;;;2.40;;
67174;SDS011;54110;45.778;4.826;2022-12-08T14:21:19;7.93;;;2.67;;
67174;SDS011;54110;45.778;4.826;2022-12-08T14:23:45;4.93;;;2.53;;
67174;SDS011;54110;45.778;4.826;2022-12-08T14:26:12;4.63;;;2.33;;
67174;SDS011;54110;45.778;4.826;2022-12-08T14:28:38;7.03;;;2.58;;
67174;SDS011;54110;45.778;4.826;2022-12-08T14:31:07;4.47;;;2.90;;
67174;SDS011;54110;45.778;4.826;2022-12-08T14:33:33;3.33;;;1.95;;
67174;SDS011;54110;45.778;4.826;2022-12-08T14:35:59;7.78;;;3.03;;
67174;SDS011;54110;45.778;4.826;2022-12-08T14:38:25;6.13;;;2.20;;
67174;SDS011;54110;45.778;4.826;2022-12-08T14:40:59;2.95;;;1.90;;
67174;SDS011;54110;45.778;4.826;2022-12-08T14:43:27;5.45;;;2.35;;
67174;SDS011;54110;45.778;4.826;2022-12-08T14:45:54;5.13;;;2.63;;
67174;SDS011;54110;45.778;4.826;2022-12-08T14:48:23;6.30;;;2.97;;
67174;SDS011;54110;45.778;4.826;2022-12-08T14:50:54;6.30;;;1.90;;
67174;SDS011;54110;45.778;4.826;2022-12-08T14:53:21;3.15;;;2.17;;
67174;SDS011;54110;45.778;4.826;2022-12-08T14:55:48;4.57;;;2.50;;
67174;SDS011;54110;45.778;4.826;2022-12-08T14:58:16;10.00;;;2.63;;
67174;SDS011;54110;45.778;4.826;2022-12-08T15:00:45;5.88;;;2.17;;
67174;SDS011;54110;45.778;4.826;2022-12-08T15:03:11;4.95;;;2.13;;